Terminal Aerodrome Forecast
Issued by NWS North Platte, NE

Home | Current Version | Previous Version | Text Only | Print | Product List | Glossary On
Versions: 1 2 3 4 5 6 7 8 9 10 11 12 13 14 15 16 17 18
000
FTUS43 KLBF 170800 AAA
TAFVTN
TAF AMD
KVTN 170810Z 1708/1806 04010KT P6SM SCT017
      TEMPO 1708/1711 BKN017
     FM171100 04004KT P6SM OVC025
     FM171500 13009KT P6SM OVC060
     FM172000 17012G18KT P6SM BKN050
     FM180100 16013KT P6SM SCT250=

USA.gov is the U.S. government's official web portal to all federal, state and local government web resources and services.